Seattle, WA (98126)

4:04 AM PDT on May 30, 2015 (GMT -0700)
APRSWXNET | | Change Station
CLOSE
Current Station
Personal Weather Station
Location: Seattle, WA
Elevation: 367 ft
Nearby Weather Stations

Elev 367 ft 47.55 °N, 122.38 °W | Updated 3 days ago

Partly Cloudy
Partly Cloudy
54 °F
Feels Like 54 °F
N
6
Wind Variable Wind from South
Gusts 11 mph

Today
High -- | Low -- °F
--% Chance of Precip.
Yesterday
High -- | Low -- °F
Precip. -- in
5:17 AM 8:57 PM
Waxing Gibbous, 89% visible
Pressure 29.95 in
Visibility 10.0 miles
Clouds Scattered Clouds 1300 ft
Dew Point 47 °F
Humidity 77%
Rainfall in
Snow Depth Not available.
UV 0 out of 12
Pollen 8.40 out of 12
Air Quality Not available.
Flu Activity Sporadic
METAR KBFI 301053Z 18005KT 10SM SCT013 13/08 A2995 RMK AO2 SLP142 T01280083

More Conditions Fewer Conditions

Pressure 29.95 in
Visibility 10.0 miles
Clouds Scattered Clouds 1300 ft
Dew Point 47 °F
Humidity 77%
Rainfall in
Snow Depth Not available.
UV 0 out of 12
Pollen 8.40 out of 12
Air Quality Not available.
Flu Activity Sporadic
METAR KBFI 301053Z 18005KT 10SM SCT013 13/08 A2995 RMK AO2 SLP142 T01280083

More Conditions Fewer Conditions

10-Day Weather Forecast

Almanac

Astronomy

May. 30, 2015 Rise Set
Actual Time
Civil Twilight
Nautical Twilight
Astronomical Twilight
Moon
Length of Visible Light
Length of Day
Tomorrow will be .
, % of the Moon is Illuminated

Today's Extremes

State Highs State Lows

Community

WunderPhotos

Upload Photos

1,825,478 photos uploaded!

WunderBlogs® & News

Nearby

Air Quality

  Air Quality AQ Index Pollutant
Not available.

Snow Depth

Station Depth Elevation

Earthquake Activity

City Distance Mag. Time & Date
Minimum magnitude displayed is 2.5.

Coastal Water Temperatures

Place Temperature

Stations

Nearby Weather Stations

Station Location Temp. Windchill Dew Point Humidity Wind Precip. Elev Updated Type